Pell City, Alabama
Current Conditions -  °F | °C
As of 6:55 PM on Saturday 22 Nov 2014 (Local Time) from KASN Reporting Station
Overcast Overcast  
Wind Chill: 62°   Ceiling: 6000
Heat Index: 62°   Visibility: 10mi
Dew Point: 44°   Wind: 6mph
Humidity: 52%   Direction: 120°ESE
Pressure: 30.19"   Gusts: NA
Location:  33.59°N, 86.29°W
Report Text: KASN 230055Z AUTO 12005KT 10SM OVC060 17/07 A3019 RMK AO2 T01670068
Loading
Personal Weather Stations






























Interactive Weather Map New forecast layout! Learn more

10-Day Weather Forecast

Advertisements
Track Severe Weather on mobile